createdAt,value
2018-10-18T00:01:11.443Z,17.77
2018-10-18T00:03:41.966Z,17.75
2018-10-18T00:06:12.138Z,17.64
2018-10-18T00:08:42.447Z,17.63
2018-10-18T00:11:13.093Z,17.57
2018-10-18T00:13:42.850Z,17.57
2018-10-18T00:16:13.926Z,17.58
2018-10-18T00:18:49.016Z,17.44
2018-10-18T00:21:20.071Z,17.43
2018-10-18T00:23:49.830Z,17.45
2018-10-18T00:26:21.914Z,17.36
2018-10-18T00:28:51.960Z,17.25
2018-10-18T00:31:22.436Z,17.15
2018-10-18T00:36:37.065Z,17.11
2018-10-18T00:39:14.486Z,17.05
2018-10-18T00:41:44.920Z,16.62
2018-10-18T00:44:14.807Z,17.07
2018-10-18T00:46:46.142Z,17.05
2018-10-18T00:49:20.450Z,17.04
2018-10-18T00:51:50.582Z,17.11
2018-10-18T00:54:21.535Z,17.04
2018-10-18T00:56:51.591Z,16.98
2018-10-18T00:59:22.663Z,16.90
2018-10-18T01:01:52.496Z,16.87
2018-10-18T01:04:22.449Z,16.83
2018-10-18T01:06:52.246Z,16.77
2018-10-18T01:09:21.773Z,16.78
2018-10-18T01:11:51.822Z,16.71
2018-10-18T01:14:23.451Z,16.71
2018-10-18T01:16:58.108Z,16.69
2018-10-18T01:22:59.910Z,16.57
2018-10-18T01:25:30.318Z,16.52
2018-10-18T01:30:49.255Z,16.52
2018-10-18T01:33:19.113Z,16.50
2018-10-18T01:35:48.656Z,16.40
2018-10-18T01:38:18.242Z,16.36
2018-10-18T01:40:47.656Z,16.44
2018-10-18T01:43:17.156Z,16.39
2018-10-18T01:45:46.730Z,16.41
2018-10-18T01:48:16.808Z,16.42
2018-10-18T01:50:46.384Z,16.41
2018-10-18T01:53:17.021Z,16.12
2018-10-18T01:55:46.469Z,16.39
2018-10-18T01:58:16.645Z,16.37
2018-10-18T02:00:46.346Z,16.40
2018-10-18T02:03:15.931Z,16.41
2018-10-18T02:05:45.454Z,16.32
2018-10-18T02:08:15.752Z,16.38
2018-10-18T02:10:45.277Z,16.35
2018-10-18T02:13:14.839Z,16.35
2018-10-18T02:15:44.520Z,16.37
2018-10-18T02:18:17.931Z,16.08
2018-10-18T02:20:47.345Z,16.48
2018-10-18T02:23:17.797Z,16.57
2018-10-18T02:25:47.856Z,16.66
2018-10-18T02:28:17.199Z,16.73
2018-10-18T02:30:46.991Z,16.75
2018-10-18T02:33:17.049Z,16.77
2018-10-18T02:35:47.375Z,16.77
2018-10-18T02:38:17.380Z,16.75
2018-10-18T02:40:47.451Z,16.82
2018-10-18T02:43:16.975Z,16.77
2018-10-18T02:45:50.969Z,16.73
2018-10-18T02:48:20.593Z,16.57
2018-10-18T02:50:50.001Z,16.48
2018-10-18T02:53:19.922Z,16.41
2018-10-18T02:55:49.303Z,16.41
2018-10-18T02:58:18.761Z,16.45
2018-10-18T03:00:48.458Z,16.37
2018-10-18T03:03:18.014Z,16.45
2018-10-18T03:05:47.672Z,16.47
2018-10-18T03:08:17.314Z,16.45
2018-10-18T03:10:47.207Z,16.48
2018-10-18T03:13:16.863Z,16.43
2018-10-18T03:15:46.837Z,16.36
2018-10-18T03:18:16.502Z,16.32
2018-10-18T03:20:46.262Z,16.34
2018-10-18T03:23:16.220Z,16.36
2018-10-18T03:25:46.301Z,16.37
2018-10-18T03:28:15.792Z,16.42
2018-10-18T03:30:46.195Z,16.37
2018-10-18T03:33:15.836Z,16.31
2018-10-18T03:35:45.228Z,16.29
2018-10-18T03:38:15.065Z,16.28
2018-10-18T03:40:44.532Z,16.37
2018-10-18T03:43:14.268Z,16.38
2018-10-18T03:45:44.588Z,16.37
2018-10-18T03:48:14.629Z,16.36
2018-10-18T03:50:44.353Z,16.41
2018-10-18T03:56:04.577Z,16.34
2018-10-18T03:58:35.485Z,16.35
2018-10-18T04:01:07.038Z,16.40
2018-10-18T04:03:38.315Z,16.40
2018-10-18T04:06:08.662Z,16.44
2018-10-18T04:08:38.159Z,16.45
2018-10-18T04:11:10.422Z,16.61
2018-10-18T04:13:41.800Z,16.53
2018-10-18T04:16:15.276Z,16.57
2018-10-18T04:18:45.529Z,16.56
2018-10-18T04:21:17.443Z,16.51
2018-10-18T04:23:48.392Z,16.51
2018-10-18T04:26:19.019Z,16.59
2018-10-18T04:28:49.722Z,16.67
2018-10-18T04:31:20.596Z,16.63
2018-10-18T04:33:51.724Z,16.70
2018-10-18T04:36:22.606Z,16.72
2018-10-18T04:38:53.807Z,16.71
2018-10-18T04:41:23.507Z,16.79
2018-10-18T04:43:58.060Z,16.82
2018-10-18T04:46:30.584Z,16.93
2018-10-18T04:49:00.357Z,17.01
2018-10-18T04:51:31.250Z,17.03
2018-10-18T04:54:02.588Z,17.01
2018-10-18T04:56:32.523Z,17.04
2018-10-18T04:59:03.289Z,17.01
2018-10-18T05:01:36.013Z,17.08
2018-10-18T05:04:06.626Z,17.07
2018-10-18T05:06:36.913Z,17.08
2018-10-18T05:09:08.393Z,17.05
2018-10-18T05:11:38.607Z,17.20
2018-10-18T05:14:10.335Z,17.16
2018-10-18T05:16:41.415Z,17.14
2018-10-18T05:19:11.267Z,17.14
2018-10-18T05:21:41.838Z,17.12
2018-10-18T05:24:12.819Z,17.30
2018-10-18T05:26:45.386Z,17.26
2018-10-18T05:29:27.533Z,17.24
2018-10-18T05:32:06.248Z,17.13
2018-10-18T05:34:45.024Z,17.04
2018-10-18T05:37:19.151Z,17.09
2018-10-18T05:39:50.422Z,17.05
2018-10-18T05:42:21.629Z,17.03
2018-10-18T05:44:52.742Z,17.04
2018-10-18T05:47:22.608Z,17.11
2018-10-18T05:49:52.123Z,17.10
2018-10-18T05:52:21.752Z,17.16
2018-10-18T05:54:52.265Z,17.21
2018-10-18T05:57:23.173Z,17.23
2018-10-18T05:59:57.833Z,17.19
2018-10-18T06:02:29.986Z,17.26
2018-10-18T06:04:59.583Z,17.19
2018-10-18T06:07:34.353Z,17.23
2018-10-18T06:10:06.210Z,17.29
2018-10-18T06:12:36.695Z,17.31
2018-10-18T06:15:16.360Z,15.42
2018-10-18T06:18:17.976Z,17.35
2018-10-18T06:20:49.524Z,17.51
2018-10-18T06:23:19.661Z,17.42
2018-10-18T06:25:49.966Z,17.44
2018-10-18T06:28:20.540Z,17.38
2018-10-18T06:30:56.522Z,17.47
2018-10-18T06:33:28.376Z,17.51
2018-10-18T06:36:01.726Z,17.58
2018-10-18T06:38:36.405Z,17.76
2018-10-18T06:41:08.090Z,17.79
2018-10-18T06:43:42.196Z,17.81
2018-10-18T06:46:14.078Z,17.94
2018-10-18T06:48:44.319Z,17.91
2018-10-18T06:51:13.919Z,17.84
2018-10-18T06:53:43.993Z,17.95
2018-10-18T06:56:15.315Z,18.07
2018-10-18T06:58:46.571Z,18.01
2018-10-18T07:01:16.590Z,18.02
2018-10-18T07:03:47.437Z,17.96
2018-10-18T07:06:18.203Z,18.03
2018-10-18T07:08:49.856Z,18.07
2018-10-18T07:11:22.443Z,18.31
2018-10-18T07:13:55.091Z,18.29
2018-10-18T07:16:25.566Z,18.42
2018-10-18T07:18:56.875Z,18.34
2018-10-18T07:21:31.931Z,18.33
2018-10-18T07:24:14.292Z,18.32
2018-10-18T07:26:49.781Z,18.41
2018-10-18T07:29:22.783Z,18.42
2018-10-18T07:31:56.721Z,18.39
2018-10-18T07:34:27.695Z,18.23
2018-10-18T07:36:58.316Z,18.28
2018-10-18T07:39:33.828Z,18.28
2018-10-18T07:42:07.352Z,18.46
2018-10-18T07:44:38.971Z,18.55
2018-10-18T07:47:14.293Z,18.57
2018-10-18T07:49:46.955Z,18.74
2018-10-18T07:52:21.167Z,18.74
2018-10-18T07:54:53.717Z,18.71
2018-10-18T07:57:35.815Z,18.86
2018-10-18T08:00:20.492Z,18.79
2018-10-18T08:02:57.348Z,18.86
2018-10-18T08:05:28.327Z,18.81
2018-10-18T08:07:58.740Z,18.64
2018-10-18T08:10:29.479Z,18.60
2018-10-18T08:12:59.803Z,18.56
2018-10-18T08:17:55.491Z,18.86
2018-10-18T08:20:25.166Z,18.84
2018-10-18T08:22:57.930Z,18.74
2018-10-18T08:25:31.473Z,18.63
2018-10-18T08:28:04.936Z,18.54
2018-10-18T08:30:35.653Z,18.47
2018-10-18T08:33:06.392Z,18.36
2018-10-18T08:35:36.195Z,18.37
2018-10-18T08:38:09.100Z,18.32
2018-10-18T08:43:20.895Z,18.33
2018-10-18T08:45:51.302Z,18.23
2018-10-18T08:48:21.793Z,18.12
2018-10-18T08:50:52.222Z,18.14
2018-10-18T08:53:21.843Z,18.16
2018-10-18T08:56:06.696Z,18.21
2018-10-18T08:58:46.843Z,18.21
2018-10-18T09:01:17.002Z,18.17
2018-10-18T09:03:46.566Z,18.10
2018-10-18T09:06:17.067Z,18.13
2018-10-18T09:08:50.023Z,18.05
2018-10-18T09:11:19.470Z,17.94
2018-10-18T09:13:54.177Z,18.01
2018-10-18T09:16:25.104Z,18.17
2018-10-18T09:18:55.173Z,18.39
2018-10-18T09:21:25.084Z,18.63
2018-10-18T09:23:55.914Z,18.65
2018-10-18T09:26:25.473Z,18.70
2018-10-18T09:31:23.156Z,18.99
2018-10-18T09:33:52.586Z,19.18
2018-10-18T09:36:24.297Z,19.29
2018-10-18T09:38:54.272Z,19.34
2018-10-18T09:41:26.706Z,19.28
2018-10-18T09:44:03.367Z,19.28
2018-10-18T09:46:44.923Z,19.40
2018-10-18T09:49:15.792Z,19.40
2018-10-18T09:51:52.017Z,19.40
2018-10-18T09:54:25.082Z,19.47
2018-10-18T09:56:59.341Z,19.73
2018-10-18T09:59:29.231Z,20.33
2018-10-18T10:02:04.284Z,20.60
2018-10-18T10:04:35.201Z,21.26
2018-10-18T10:07:11.072Z,22.04
2018-10-18T10:09:41.397Z,22.17
2018-10-18T10:12:12.648Z,22.48
2018-10-18T10:14:44.071Z,22.96
2018-10-18T10:17:18.565Z,23.42
2018-10-18T10:19:50.655Z,24.35
2018-10-18T10:22:20.975Z,24.54
2018-10-18T10:24:52.792Z,24.84
2018-10-18T10:27:29.793Z,25.06
2018-10-18T10:30:09.025Z,25.83
2018-10-18T10:32:43.474Z,25.79
2018-10-18T10:35:13.873Z,25.32
2018-10-18T10:37:46.178Z,25.30
2018-10-18T10:40:21.825Z,25.74
2018-10-18T10:42:51.541Z,25.93
2018-10-18T10:45:24.469Z,25.57
2018-10-18T10:47:54.509Z,24.77
2018-10-18T10:50:25.187Z,23.70
2018-10-18T10:52:55.803Z,24.33
2018-10-18T10:55:25.794Z,24.48
2018-10-18T10:58:03.416Z,25.04
2018-10-18T11:04:01.363Z,24.89
2018-10-18T11:06:33.606Z,24.84
2018-10-18T11:09:05.720Z,25.27
2018-10-18T11:11:36.283Z,24.56
2018-10-18T11:14:08.598Z,24.41
2018-10-18T11:16:42.497Z,24.83
2018-10-18T11:19:12.728Z,24.91
2018-10-18T11:21:42.394Z,24.25
2018-10-18T11:24:28.604Z,23.73
2018-10-18T11:29:37.505Z,23.43
2018-10-18T11:32:08.039Z,22.98
2018-10-18T11:37:19.598Z,22.76
2018-10-18T11:39:54.407Z,23.70
2018-10-18T11:42:24.555Z,23.20
2018-10-18T11:44:55.579Z,22.47
2018-10-18T11:47:27.727Z,22.03
2018-10-18T11:49:58.711Z,21.92
2018-10-18T11:52:28.509Z,22.74
2018-10-18T11:55:02.621Z,23.31
2018-10-18T11:57:38.055Z,24.04
2018-10-18T12:00:32.986Z,24.19
2018-10-18T12:03:04.369Z,24.32
2018-10-18T12:05:37.779Z,23.88
2018-10-18T12:08:08.451Z,23.85
2018-10-18T12:10:39.781Z,23.83
2018-10-18T12:13:10.068Z,24.20
2018-10-18T12:15:44.774Z,24.64
2018-10-18T12:18:21.121Z,24.60
2018-10-18T12:20:54.438Z,24.32
2018-10-18T12:23:24.603Z,24.05
2018-10-18T12:25:55.175Z,23.86
2018-10-18T12:28:26.841Z,23.63
2018-10-18T12:30:58.366Z,23.12
2018-10-18T12:33:37.339Z,23.13
2018-10-18T12:36:09.723Z,23.26
2018-10-18T12:38:39.537Z,23.21
2018-10-18T12:41:15.837Z,22.77
2018-10-18T12:46:37.568Z,22.65
2018-10-18T12:49:09.520Z,22.60
2018-10-18T12:51:41.036Z,22.43
2018-10-18T12:54:18.560Z,22.27
2018-10-18T12:56:53.747Z,22.07
2018-10-18T12:59:32.099Z,22.23
2018-10-18T13:02:05.311Z,22.45
2018-10-18T13:04:38.670Z,22.56
2018-10-18T13:07:11.512Z,22.61
2018-10-18T13:09:43.603Z,22.63
2018-10-18T13:12:16.602Z,22.65
2018-10-18T13:14:47.267Z,22.34
2018-10-18T13:17:19.388Z,22.20
2018-10-18T13:19:49.115Z,22.03
2018-10-18T13:22:25.078Z,21.83
2018-10-18T13:24:58.120Z,21.81
2018-10-18T13:27:35.221Z,21.84
2018-10-18T13:32:58.065Z,21.98
2018-10-18T13:35:44.578Z,21.84
2018-10-18T13:38:17.336Z,21.84
2018-10-18T13:40:53.387Z,22.10
2018-10-18T13:43:26.263Z,22.04
2018-10-18T13:45:56.781Z,21.75
2018-10-18T13:48:25.934Z,21.41
2018-10-18T13:50:55.929Z,21.50
2018-10-18T13:53:31.225Z,21.33
2018-10-18T13:56:04.244Z,21.25
2018-10-18T13:58:34.967Z,21.01
2018-10-18T14:01:05.967Z,20.84
2018-10-18T14:03:36.948Z,20.90
2018-10-18T14:06:11.364Z,20.83
2018-10-18T14:08:42.873Z,20.76
2018-10-18T14:11:15.351Z,21.00
2018-10-18T14:13:45.437Z,20.97
2018-10-18T14:16:17.961Z,20.86
2018-10-18T14:19:01.966Z,20.87
2018-10-18T14:21:40.640Z,20.88
2018-10-18T14:24:14.103Z,21.03
2018-10-18T14:26:47.829Z,20.94
2018-10-18T14:29:22.918Z,20.71
2018-10-18T14:34:37.570Z,20.87
2018-10-18T14:37:09.835Z,20.82
2018-10-18T14:39:48.094Z,20.62
2018-10-18T14:42:22.166Z,20.68
2018-10-18T14:44:53.956Z,20.53
2018-10-18T14:47:25.278Z,20.54
2018-10-18T14:49:55.826Z,20.59
2018-10-18T14:52:26.007Z,18.83
2018-10-18T14:54:55.204Z,20.76
2018-10-18T14:57:29.236Z,20.63
2018-10-18T15:00:07.084Z,20.50
2018-10-18T15:02:38.036Z,20.48
2018-10-18T15:05:11.508Z,20.38
2018-10-18T15:07:42.778Z,20.27
2018-10-18T15:10:14.125Z,20.11
2018-10-18T15:12:48.270Z,20.07
2018-10-18T15:18:10.946Z,19.83
2018-10-18T15:20:42.929Z,19.74
2018-10-18T15:23:33.656Z,19.66
2018-10-18T15:26:06.152Z,19.59
2018-10-18T15:28:36.992Z,19.62
2018-10-18T15:31:06.765Z,19.79
2018-10-18T15:33:36.554Z,19.90
2018-10-18T15:36:07.752Z,19.97
2018-10-18T15:38:39.748Z,19.90
2018-10-18T15:41:09.415Z,19.91
2018-10-18T15:43:39.434Z,19.90
2018-10-18T15:46:09.205Z,19.85
2018-10-18T15:48:38.850Z,19.89
2018-10-18T15:51:08.581Z,19.81
2018-10-18T15:53:38.495Z,19.94
2018-10-18T15:56:19.226Z,19.88
2018-10-18T15:58:57.863Z,19.83
2018-10-18T16:01:30.657Z,19.84
2018-10-18T16:04:00.122Z,19.97
2018-10-18T16:06:34.260Z,20.08
2018-10-18T16:09:05.470Z,20.01
2018-10-18T16:11:35.780Z,19.88
2018-10-18T16:14:05.092Z,19.07
2018-10-18T16:16:35.317Z,19.88
2018-10-18T16:19:09.454Z,19.70
2018-10-18T16:21:39.742Z,19.61
2018-10-18T16:24:11.204Z,19.56
2018-10-18T16:26:40.671Z,19.45
2018-10-18T16:29:11.585Z,19.39
2018-10-18T16:31:44.425Z,19.28
2018-10-18T16:34:20.806Z,19.26
2018-10-18T16:36:53.168Z,19.21
2018-10-18T16:39:24.024Z,19.07
2018-10-18T16:42:20.409Z,18.86
2018-10-18T16:44:52.415Z,18.76
2018-10-18T16:47:36.407Z,18.75
2018-10-18T16:50:06.210Z,18.79
2018-10-18T16:52:37.126Z,18.69
2018-10-18T16:55:07.137Z,18.47
2018-10-18T16:57:37.690Z,18.40
2018-10-18T17:00:15.475Z,18.28
2018-10-18T17:02:54.366Z,18.20
2018-10-18T17:05:27.025Z,18.16
2018-10-18T17:07:56.463Z,18.05
2018-10-18T17:10:31.379Z,18.03
2018-10-18T17:13:02.399Z,18.02
2018-10-18T17:15:32.047Z,18.01
2018-10-18T17:18:02.172Z,18.10
2018-10-18T17:20:32.176Z,18.14
2018-10-18T17:23:05.209Z,17.78
2018-10-18T17:25:35.986Z,18.05
2018-10-18T17:28:08.098Z,18.06
2018-10-18T17:30:39.246Z,17.27
2018-10-18T17:33:11.550Z,17.57
2018-10-18T17:35:43.301Z,17.86
2018-10-18T17:38:12.745Z,17.85
2018-10-18T17:40:46.669Z,17.78
2018-10-18T17:43:16.850Z,17.66
2018-10-18T17:45:50.642Z,17.62
2018-10-18T17:48:19.985Z,17.67
2018-10-18T17:50:52.833Z,17.66
2018-10-18T17:53:23.681Z,17.64
2018-10-18T17:55:54.341Z,17.56
2018-10-18T17:58:23.896Z,17.48
2018-10-18T18:00:59.165Z,17.11
2018-10-18T18:03:28.485Z,17.51
2018-10-18T18:05:58.914Z,17.51
2018-10-18T18:08:28.120Z,17.45
2018-10-18T18:10:59.405Z,17.44
2018-10-18T18:13:28.855Z,17.40
2018-10-18T18:16:09.540Z,17.30
2018-10-18T18:18:43.930Z,17.35
2018-10-18T18:21:19.926Z,17.32
2018-10-18T18:23:51.989Z,17.35
2018-10-18T18:26:32.446Z,17.37
2018-10-18T18:31:28.577Z,17.36
2018-10-18T18:34:06.167Z,17.39
2018-10-18T18:36:36.439Z,17.39
2018-10-18T18:39:08.756Z,17.29
2018-10-18T18:41:44.008Z,17.29
2018-10-18T18:44:14.794Z,17.33
2018-10-18T18:46:57.028Z,17.35
2018-10-18T18:49:30.864Z,17.35
2018-10-18T18:52:00.987Z,17.32
2018-10-18T18:54:32.935Z,17.34
2018-10-18T18:57:03.218Z,17.32
2018-10-18T18:59:32.580Z,17.23
2018-10-18T19:02:13.518Z,16.98
2018-10-18T19:07:20.111Z,16.89
2018-10-18T19:09:54.274Z,16.84
2018-10-18T19:12:23.720Z,16.79
2018-10-18T19:14:57.377Z,16.77
2018-10-18T19:17:28.252Z,16.72
2018-10-18T19:19:57.365Z,16.73
2018-10-18T19:22:27.081Z,16.76
2018-10-18T19:24:57.754Z,16.80
2018-10-18T19:27:29.909Z,16.76
2018-10-18T19:30:00.170Z,16.66
2018-10-18T19:32:30.337Z,16.66
2018-10-18T19:37:48.364Z,16.64
2018-10-18T19:40:18.503Z,16.64
2018-10-18T19:42:49.328Z,16.56
2018-10-18T19:45:19.744Z,16.56
2018-10-18T19:47:51.162Z,16.59
2018-10-18T19:50:20.973Z,16.65
2018-10-18T19:52:51.831Z,16.56
2018-10-18T19:55:22.580Z,16.50
2018-10-18T19:57:59.967Z,16.45
2018-10-18T20:00:29.932Z,16.43
2018-10-18T20:03:04.103Z,16.38
2018-10-18T20:05:35.860Z,16.49
2018-10-18T20:08:08.244Z,16.45
2018-10-18T20:10:38.249Z,16.51
2018-10-18T20:13:10.551Z,16.54
2018-10-18T20:15:40.023Z,16.54
2018-10-18T20:18:12.507Z,16.61
2018-10-18T20:20:42.601Z,16.61
2018-10-18T20:23:12.052Z,16.51
2018-10-18T20:25:44.836Z,16.48
2018-10-18T20:28:15.445Z,16.47
2018-10-18T20:30:44.774Z,16.45
2018-10-18T20:33:14.633Z,16.44
2018-10-18T20:35:46.689Z,16.43
2018-10-18T20:38:17.103Z,16.43
2018-10-18T20:40:46.989Z,16.42
2018-10-18T20:43:16.342Z,16.41
2018-10-18T20:45:48.989Z,16.40
2018-10-18T20:48:20.302Z,16.31
2018-10-18T20:50:49.497Z,16.26
2018-10-18T20:53:22.107Z,15.83
2018-10-18T20:55:52.067Z,16.24
2018-10-18T20:58:25.156Z,16.30
2018-10-18T21:00:59.824Z,16.32
2018-10-18T21:03:31.018Z,16.39
2018-10-18T21:06:01.013Z,16.41
2018-10-18T21:08:30.679Z,16.41
2018-10-18T21:11:00.684Z,16.33
2018-10-18T21:13:36.232Z,16.28
2018-10-18T21:16:09.333Z,16.29
2018-10-18T21:18:39.049Z,16.31
2018-10-18T21:21:11.587Z,16.30
2018-10-18T21:26:20.098Z,16.29
2018-10-18T21:28:51.678Z,16.17
2018-10-18T21:31:21.082Z,16.14
2018-10-18T21:34:03.397Z,16.18
2018-10-18T21:36:33.615Z,16.20
2018-10-18T21:39:04.651Z,16.15
2018-10-18T21:41:35.792Z,16.18
2018-10-18T21:44:06.793Z,16.27
2018-10-18T21:46:39.356Z,16.29
2018-10-18T21:49:12.217Z,16.35
2018-10-18T21:51:43.068Z,16.32
2018-10-18T21:54:15.106Z,16.33
2018-10-18T21:56:45.488Z,16.37
2018-10-18T21:59:25.946Z,16.33
2018-10-18T22:01:57.502Z,16.40
2018-10-18T22:04:28.740Z,16.42
2018-10-18T22:06:57.807Z,16.41
2018-10-18T22:09:32.820Z,16.41
2018-10-18T22:12:02.399Z,16.39
2018-10-18T22:14:34.308Z,16.49
2018-10-18T22:17:03.882Z,16.46
2018-10-18T22:19:35.503Z,16.42
2018-10-18T22:22:05.410Z,16.39
2018-10-18T22:24:37.259Z,16.40
2018-10-18T22:27:07.739Z,16.32
2018-10-18T22:29:37.812Z,16.31
2018-10-18T22:32:07.509Z,16.36
2018-10-18T22:34:37.009Z,16.35
2018-10-18T22:37:06.448Z,16.36
2018-10-18T22:39:35.784Z,16.27
2018-10-18T22:42:06.869Z,16.29
2018-10-18T22:44:36.599Z,16.31
2018-10-18T22:47:06.298Z,16.31
2018-10-18T22:49:35.832Z,16.30
2018-10-18T22:52:05.279Z,16.32
2018-10-18T22:54:35.249Z,16.36
2018-10-18T22:57:04.704Z,16.36
2018-10-18T22:59:33.803Z,16.36
2018-10-18T23:02:03.122Z,16.26
2018-10-18T23:04:32.544Z,16.21
2018-10-18T23:07:01.621Z,16.17
2018-10-18T23:09:30.813Z,16.15
2018-10-18T23:12:01.842Z,16.09
2018-10-18T23:14:31.433Z,16.08
2018-10-18T23:17:00.862Z,16.07
2018-10-18T23:19:32.806Z,16.10
2018-10-18T23:22:05.971Z,16.03
2018-10-18T23:24:36.393Z,15.95
2018-10-18T23:27:06.553Z,15.89
2018-10-18T23:29:37.758Z,15.95
2018-10-18T23:32:11.784Z,15.96
2018-10-18T23:34:41.354Z,15.98
2018-10-18T23:37:10.678Z,16.06
2018-10-18T23:39:41.521Z,16.18
2018-10-18T23:42:12.275Z,16.17
2018-10-18T23:44:44.177Z,16.16
2018-10-18T23:47:16.826Z,16.13
2018-10-18T23:49:47.866Z,16.19
2018-10-18T23:52:18.920Z,16.22
2018-10-18T23:54:49.233Z,16.29
2018-10-18T23:57:19.711Z,16.48
2018-10-18T23:59:50.533Z,16.59
